Time;durP1;ratioP1;P1;durP2;ratioP2;P2;SDS_P1;SDS_P2;PMS_P1;PMS_P2;Temp;Humidity;BMP_temperature;BMP_pressure;BME280_temperature;BME280_humidity;BME280_pressure;Samples;Min_cycle;Max_cycle;Signal;HPM_P1;HPM_P2
2021/12/21 00:00:20;;;;;;;19.07;10.53;;;;;;;0.29;75.76;99206.94;4966468;29;20176;-88
2021/12/21 00:02:48;;;;;;;14.10;8.60;;;;;;;-2.90;76.16;98694.00;4964731;29;20192;-87
2021/12/21 00:05:18;;;;;;;8.83;4.70;;;;;;;-1.36;76.21;98974.69;4963755;29;20457;-88
2021/12/21 00:07:46;;;;;;;8.90;5.40;;;;;;;0.38;76.86;99262.47;4964498;28;20940;-86
2021/12/21 00:10:12;;;;;;;9.20;4.63;;;;;;;0.72;76.88;99329.88;4963099;29;20964;-86
2021/12/21 00:12:47;;;;;;;34.10;12.90;;;;;;;0.53;76.75;99308.50;4963861;28;21266;-88
2021/12/21 00:15:28;;;;;;;60.73;21.10;;;;;;;0.36;77.20;99278.88;4963442;28;20395;-86
2021/12/21 00:18:03;;;;;;;51.90;18.00;;;;;;;1.72;76.83;99528.31;4961747;29;20788;-86
2021/12/21 00:20:57;;;;;;;89.60;25.67;;;;;;;1.73;76.34;99520.94;4963225;28;20432;-86
2021/12/21 00:23:31;;;;;;;58.00;19.33;;;;;;;1.68;76.67;99532.19;4961151;29;20435;-85
2021/12/21 00:25:59;;;;;;;29.00;11.87;;;;;;;1.88;76.24;99552.84;4959424;29;20497;-85
2021/12/21 00:28:25;;;;;;;15.87;7.97;;;;;;;1.01;76.39;99440.25;4961413;28;20424;-86
2021/12/21 00:30:50;;;;;;;12.70;7.57;;;;;;;1.70;76.95;99578.06;4964035;28;20451;-86
2021/12/21 00:33:17;;;;;;;38.10;17.83;;;;;;;0.93;76.90;99451.22;4962828;29;20216;-86
2021/12/21 00:35:42;;;;;;;18.40;8.63;;;;;;;1.09;77.48;99509.03;4963587;29;20207;-86
2021/12/21 00:38:08;;;;;;;15.03;8.87;;;;;;;-0.55;77.48;99200.84;4964809;29;20409;-86
2021/12/21 00:40:33;;;;;;;9.33;5.07;;;;;;;-0.13;78.16;99318.78;4965115;28;20187;-85
2021/12/21 00:42:58;;;;;;;13.67;7.03;;;;;;;0.03;78.36;99365.69;4963710;29;20244;-85
2021/12/21 00:45:24;;;;;;;10.33;5.60;;;;;;;0.45;77.76;99441.44;4959876;29;20208;-86
2021/12/21 00:47:50;;;;;;;10.00;4.60;;;;;;;0.72;76.82;99481.81;4960978;29;20235;-86
2021/12/21 00:50:20;;;;;;;9.93;5.07;;;;;;;-1.13;76.59;99164.41;4964368;29;20721;-85
2021/12/21 00:52:48;;;;;;;8.00;4.30;;;;;;;0.78;76.08;99477.34;4965340;28;20157;-86
2021/12/21 00:55:14;;;;;;;7.23;3.80;;;;;;;-0.16;74.90;99302.72;4961993;29;20929;-86
2021/12/21 00:57:39;;;;;;;6.57;3.27;;;;;;;-0.97;73.91;99160.88;4961738;28;20540;-85
2021/12/21 01:00:07;;;;;;;8.17;4.37;;;;;;;-1.92;73.79;98974.03;4962867;29;20161;-86
2021/12/21 01:02:33;;;;;;;5.63;3.30;;;;;;;1.11;73.42;99500.06;4967346;29;20634;-85
2021/12/21 01:04:59;;;;;;;7.07;4.17;;;;;;;-2.08;72.94;98966.91;4966268;28;20698;-87
2021/12/21 01:07:46;;;;;;;9.07;5.13;;;;;;;-2.24;73.34;98936.63;4963631;28;20157;-87
2021/12/21 01:16:02;;;;;;;6.40;4.00;;;;;;;-0.13;73.07;99290.53;4942277;29;20492;-86
2021/12/21 01:18:42;;;;;;;6.53;3.60;;;;;;;1.51;72.51;99567.38;4938405;29;20192;-85
2021/12/21 01:21:16;;;;;;;17.83;7.60;;;;;;;1.62;72.47;99564.13;4937857;29;20433;-87
2021/12/21 01:26:22;;;;;;;14.23;8.17;;;;;;;1.63;71.37;99565.88;4941361;29;20471;-88
2021/12/21 01:36:31;;;;;;;4.90;3.03;;;;;;;1.57;71.04;99584.44;4959892;29;20439;-86
2021/12/21 01:39:12;;;;;;;7.53;4.23;;;;;;;1.00;71.31;99470.88;4960324;29;20431;-86
2021/12/21 01:51:58;;;;;;;4.87;3.47;;;;;;;0.73;70.48;99448.72;4966565;29;20498;-84
2021/12/21 01:54:23;;;;;;;5.93;3.10;;;;;;;0.33;70.62;99374.84;4960896;29;21036;-86
2021/12/21 01:56:48;;;;;;;4.93;3.10;;;;;;;0.04;70.14;99297.78;4964512;29;20626;-85
2021/12/21 01:59:14;;;;;;;6.57;2.93;;;;;;;1.62;70.62;99561.63;4963528;29;20668;-86
2021/12/21 02:02:00;;;;;;;5.37;2.97;;;;;;;-0.83;70.13;99137.16;4960441;29;20189;-85
2021/12/21 02:04:25;;;;;;;6.77;3.37;;;;;;;-0.14;70.54;99267.28;4961142;29;20859;-85
2021/12/21 02:06:52;;;;;;;4.90;2.77;;;;;;;1.67;70.48;99560.41;4963016;29;20193;-85
2021/12/21 02:09:26;;;;;;;5.40;3.27;;;;;;;1.56;71.04;99541.19;4965804;28;20168;-86
2021/12/21 02:11:53;;;;;;;5.63;3.23;;;;;;;-1.69;70.67;98948.69;4952536;29;20504;-86
2021/12/21 02:14:18;;;;;;;7.40;3.53;;;;;;;1.10;71.64;99436.88;4968357;29;20510;-86
2021/12/21 02:19:30;;;;;;;5.40;3.07;;;;;;;1.55;72.47;99509.50;4967702;29;20676;-85
2021/12/21 02:22:06;;;;;;;3.97;2.63;;;;;;;-0.54;72.28;99151.97;4967840;29;20431;-85
2021/12/21 02:24:40;;;;;;;5.40;3.00;;;;;;;1.52;72.21;99513.38;4951249;29;20548;-86
2021/12/21 02:27:24;;;;;;;6.03;2.67;;;;;;;1.84;71.33;99554.22;4967256;29;20428;-85
2021/12/21 02:29:52;;;;;;;5.90;2.40;;;;;;;1.25;70.25;99452.19;4967661;29;20539;-87
2021/12/21 02:32:18;;;;;;;3.63;2.23;;;;;;;2.15;69.29;99572.50;4946447;29;20455;-85
2021/12/21 02:34:45;;;;;;;4.57;2.80;;;;;;;0.08;68.35;99210.22;4963821;29;20456;-86
2021/12/21 02:37:11;;;;;;;4.93;3.03;;;;;;;2.33;68.31;99574.81;4969675;28;20172;-85
2021/12/21 02:39:38;;;;;;;4.03;2.47;;;;;;;2.35;68.00;99585.81;4973145;28;20446;-86
2021/12/21 02:42:05;;;;;;;6.47;3.60;;;;;;;2.06;68.47;99536.84;4989056;28;20412;-85
2021/12/21 02:44:30;;;;;;;5.07;2.30;;;;;;;2.37;68.57;99586.81;4971794;28;20456;-85
2021/12/21 02:46:56;;;;;;;4.60;2.70;;;;;;;1.68;69.29;99487.28;4963934;29;20519;-86
2021/12/21 02:49:21;;;;;;;4.97;3.00;;;;;;;2.27;70.60;99593.47;4963912;28;20286;-85
2021/12/21 02:51:47;;;;;;;5.43;2.83;;;;;;;1.52;71.31;99463.47;4960766;29;20184;-85
2021/12/21 02:54:14;;;;;;;4.17;3.13;;;;;;;0.20;70.50;99246.03;4962084;28;20168;-86
2021/12/21 02:56:41;;;;;;;4.50;2.80;;;;;;;0.85;71.32;99343.44;4961911;29;20168;-85
2021/12/21 02:59:07;;;;;;;5.77;3.27;;;;;;;0.45;71.49;99284.59;4968435;29;20944;-87
2021/12/21 03:01:34;;;;;;;4.33;2.80;;;;;;;2.28;71.85;99597.72;4960671;28;20464;-86
2021/12/21 03:04:19;;;;;;;4.60;2.93;;;;;;;2.26;72.54;99601.69;4959358;29;20455;-85
2021/12/21 03:11:57;;;;;;;6.60;3.13;;;;;;;1.09;72.18;99391.88;4960637;29;20596;-86
2021/12/21 03:14:27;;;;;;;8.30;3.37;;;;;;;1.60;71.18;99468.31;4959960;29;20482;-86
2021/12/21 03:16:53;;;;;;;3.97;2.80;;;;;;;2.35;70.39;99603.31;4960788;29;20408;-86
2021/12/21 03:19:22;;;;;;;5.90;3.57;;;;;;;1.57;70.64;99463.09;4958966;28;20440;-87
2021/12/21 03:21:47;;;;;;;4.23;3.00;;;;;;;1.43;70.36;99432.84;4959513;29;20495;-88
2021/12/21 03:24:14;;;;;;;5.53;3.53;;;;;;;1.16;70.33;99396.59;4958662;29;20546;-86
2021/12/21 03:26:39;;;;;;;6.47;3.53;;;;;;;1.95;70.37;99527.66;4959806;29;20173;-86
2021/12/21 03:29:05;;;;;;;4.53;3.00;;;;;;;2.42;69.75;99602.13;4959145;29;20547;-87
2021/12/21 03:31:32;;;;;;;5.70;3.40;;;;;;;0.89;69.83;99334.59;4942617;29;20180;-86
2021/12/21 03:33:58;;;;;;;6.03;3.90;;;;;;;0.52;69.91;99263.56;4959324;29;20404;-87
2021/12/21 03:36:24;;;;;;;6.03;3.63;;;;;;;2.53;70.38;99608.00;4961148;29;20467;-86
2021/12/21 03:39:00;;;;;;;6.43;4.00;;;;;;;2.45;70.20;99599.00;4959384;29;20428;-87
2021/12/21 03:41:26;;;;;;;5.10;3.63;;;;;;;2.36;69.65;99596.69;4960908;28;20161;-86
2021/12/21 03:43:51;;;;;;;5.33;3.37;;;;;;;-0.29;69.16;99145.78;4962644;29;20439;-86
2021/12/21 03:46:17;;;;;;;5.27;3.00;;;;;;;2.33;70.04;99604.78;4960940;28;20164;-87
2021/12/21 03:48:46;;;;;;;4.20;3.10;;;;;;;2.24;70.70;99608.19;4961228;29;20572;-85
2021/12/21 03:51:14;;;;;;;4.50;3.40;;;;;;;-0.42;71.05;99170.41;4973781;29;20173;-86
2021/12/21 03:53:40;;;;;;;5.50;3.33;;;;;;;-0.74;71.00;99133.81;4960980;29;20436;-86
2021/12/21 03:58:31;;;;;;;4.77;3.07;;;;;;;-2.30;71.26;98858.38;4960713;28;20487;-86
2021/12/21 04:00:58;;;;;;;3.87;2.50;;;;;;;0.20;72.51;99325.66;4974912;28;20243;-86
2021/12/21 04:03:24;;;;;;;4.00;2.87;;;;;;;-0.31;72.90;99271.63;4959749;29;20188;-85
2021/12/21 04:05:49;;;;;;;6.90;4.00;;;;;;;1.84;72.88;99650.72;4975444;28;20811;-86
2021/12/21 04:08:14;;;;;;;8.87;5.67;;;;;;;-0.71;73.19;99177.94;4959660;28;20168;-87
2021/12/21 04:10:41;;;;;;;7.73;4.53;;;;;;;1.10;73.45;99473.38;4974385;28;20200;-86
2021/12/21 04:13:09;;;;;;;9.10;5.07;;;;;;;0.11;73.38;99319.06;4958310;29;20203;-85
2021/12/21 04:15:42;;;;;;;7.77;4.03;;;;;;;-0.04;73.97;99313.69;4958458;29;20472;-85
2021/12/21 04:18:08;;;;;;;6.60;3.93;;;;;;;-0.22;74.09;99282.34;4975411;28;20921;-86
2021/12/21 04:20:36;;;;;;;8.60;4.93;;;;;;;-0.04;74.24;99303.75;4957817;29;20424;-86
2021/12/21 04:23:03;;;;;;;15.23;6.77;;;;;;;0.44;75.01;99401.50;4958668;29;20195;-87
2021/12/21 04:25:29;;;;;;;14.03;7.13;;;;;;;1.76;74.88;99630.97;4959164;28;20464;-86
2021/12/21 04:27:57;;;;;;;13.73;7.47;;;;;;;0.24;75.02;99379.94;4957718;29;20452;-86
2021/12/21 04:30:22;;;;;;;8.80;5.23;;;;;;;1.02;74.77;99522.59;4959663;29;20490;-86
2021/12/21 04:32:50;;;;;;;9.07;5.13;;;;;;;1.38;74.81;99558.75;4973305;28;20835;-86
2021/12/21 04:35:20;;;;;;;8.93;5.17;;;;;;;1.84;74.74;99643.22;4959184;28;20180;-86
2021/12/21 04:37:52;;;;;;;7.67;4.57;;;;;;;1.39;74.17;99568.88;4957818;29;20412;-86
2021/12/21 04:40:21;;;;;;;8.20;5.00;;;;;;;1.90;73.56;99646.19;4959243;28;20408;-85
2021/12/21 04:42:47;;;;;;;9.63;4.63;;;;;;;1.62;73.59;99606.53;4957204;29;20446;-85
2021/12/21 04:45:12;;;;;;;6.10;3.83;;;;;;;1.45;73.61;99588.47;4958424;29;20483;-86
2021/12/21 04:47:37;;;;;;;5.50;3.77;;;;;;;-1.13;72.92;99162.81;4957932;29;20184;-87
2021/12/21 04:50:03;;;;;;;13.27;6.53;;;;;;;1.29;73.62;99573.88;4958077;29;20196;-87
2021/12/21 04:52:29;;;;;;;8.97;5.00;;;;;;;0.30;73.31;99405.31;4960088;29;20192;-86
2021/12/21 04:54:57;;;;;;;6.63;3.60;;;;;;;1.93;73.78;99684.75;4982384;28;20184;-87
2021/12/21 04:57:23;;;;;;;11.13;5.53;;;;;;;-0.32;73.79;99332.03;4982470;28;20195;-87
2021/12/21 04:59:49;;;;;;;5.80;3.27;;;;;;;-0.20;73.81;99325.59;4977057;28;20428;-86
2021/12/21 05:02:16;;;;;;;4.67;3.50;;;;;;;2.05;72.79;99694.88;4982594;28;20447;-83
2021/12/21 05:04:42;;;;;;;6.80;3.93;;;;;;;1.37;72.62;99582.84;4974254;29;20759;-85
2021/12/21 05:07:07;;;;;;;5.63;3.57;;;;;;;-0.74;71.53;99224.88;4969780;28;20527;-86
2021/12/21 05:09:41;;;;;;;6.67;3.63;;;;;;;0.78;71.50;99473.25;4966656;29;20252;-87
2021/12/21 05:12:12;;;;;;;8.40;4.97;;;;;;;-0.06;70.67;99292.81;4959370;29;20260;-85
2021/12/21 05:14:38;;;;;;;8.37;4.77;;;;;;;-0.62;70.39;99224.31;4926229;28;20436;-87
2021/12/21 05:17:05;;;;;;;7.37;4.17;;;;;;;0.51;70.45;99414.56;4962108;28;20419;-87
2021/12/21 05:19:31;;;;;;;6.07;3.00;;;;;;;-1.36;70.66;99115.28;4958232;29;20634;-87
2021/12/21 05:21:57;;;;;;;8.03;4.00;;;;;;;1.76;70.51;99620.13;4956851;29;20479;-86
2021/12/21 05:24:22;;;;;;;7.77;4.73;;;;;;;1.84;69.96;99638.22;4959611;29;20460;-86
2021/12/21 05:26:48;;;;;;;4.40;3.13;;;;;;;1.47;69.64;99609.41;4956511;29;20216;-85
2021/12/21 05:29:14;;;;;;;6.83;3.53;;;;;;;2.34;69.53;99715.56;4957058;29;20737;-86
2021/12/21 05:31:39;;;;;;;5.60;3.00;;;;;;;1.60;69.47;99602.16;4940100;29;20679;-86
2021/12/21 05:34:05;;;;;;;4.80;3.43;;;;;;;1.21;69.04;99505.03;4955738;29;21127;-86
2021/12/21 05:36:33;;;;;;;5.80;3.43;;;;;;;0.24;68.84;99355.06;4955978;29;20196;-86
2021/12/21 05:39:03;;;;;;;8.67;4.43;;;;;;;2.26;70.66;99724.06;4956873;29;20203;-86
2021/12/21 05:41:47;;;;;;;5.53;3.27;;;;;;;0.57;69.96;99461.53;4957567;29;20479;-87
2021/12/21 05:44:13;;;;;;;5.27;3.10;;;;;;;-0.60;69.78;99262.59;4960396;28;21002;-87
2021/12/21 05:46:38;;;;;;;5.27;3.17;;;;;;;0.24;69.34;99389.91;4959770;29;20435;-86
2021/12/21 05:49:04;;;;;;;4.67;2.97;;;;;;;-1.07;69.58;99145.91;4959844;29;20426;-86
2021/12/21 05:51:31;;;;;;;7.37;3.83;;;;;;;2.37;69.89;99740.78;4960070;29;20208;-86
2021/12/21 05:53:57;;;;;;;5.37;3.27;;;;;;;-0.15;69.26;99309.44;4948069;28;20196;-86
2021/12/21 05:56:22;;;;;;;5.90;3.70;;;;;;;1.30;69.88;99575.59;4963247;28;20514;-86
2021/12/21 05:58:48;;;;;;;4.00;2.53;;;;;;;-0.74;69.38;99268.00;4963380;29;20188;-86
2021/12/21 06:01:14;;;;;;;5.67;2.83;;;;;;;-0.07;69.27;99385.59;4967465;29;20177;-85
2021/12/21 06:03:39;;;;;;;7.87;3.77;;;;;;;2.19;69.68;99769.28;4967276;29;20543;-87
2021/12/21 06:06:12;;;;;;;6.00;3.50;;;;;;;-2.10;68.82;98983.28;4963890;28;20271;-86
2021/12/21 06:08:39;;;;;;;6.13;3.37;;;;;;;1.94;68.39;99701.50;4963958;29;20172;-86
2021/12/21 06:11:06;;;;;;;6.60;3.50;;;;;;;2.26;68.60;99751.53;4963314;29;20803;-88
2021/12/21 06:16:28;;;;;;;7.03;2.93;;;;;;;2.22;68.58;99744.56;4964954;29;20407;-87
2021/12/21 06:26:36;;;;;;;5.60;3.10;;;;;;;1.49;70.62;99668.63;4971114;28;20416;-88
2021/12/21 06:29:02;;;;;;;10.83;4.83;;;;;;;1.99;70.54;99770.16;4970097;28;20467;-85
2021/12/21 06:31:28;;;;;;;13.60;6.27;;;;;;;0.56;70.67;99525.41;4966225;29;20205;-86
2021/12/21 06:33:53;;;;;;;18.23;8.60;;;;;;;0.75;70.70;99564.28;4961033;29;20187;-86
2021/12/21 06:36:19;;;;;;;6.20;3.60;;;;;;;-0.22;71.08;99411.66;4962313;29;20165;-86
2021/12/21 06:38:45;;;;;;;5.80;3.40;;;;;;;0.76;70.63;99596.81;4960633;29;20228;-87
2021/12/21 06:41:11;;;;;;;9.37;4.77;;;;;;;2.15;70.17;99802.22;4965990;29;20208;-86
2021/12/21 06:43:37;;;;;;;6.87;3.40;;;;;;;2.11;70.44;99792.75;4971287;28;20187;-86
2021/12/21 06:53:48;;;;;;;9.53;5.23;;;;;;;-0.53;67.96;99290.44;4989600;28;20422;-85
2021/12/21 06:56:15;;;;;;;9.83;5.40;;;;;;;1.41;66.89;99591.44;4985949;28;20412;-86
2021/12/21 06:58:41;;;;;;;7.13;4.17;;;;;;;0.64;66.33;99460.41;4994262;28;20423;-85
2021/12/21 07:01:07;;;;;;;27.40;11.70;;;;;;;2.79;66.53;99840.84;4988220;28;20499;-85
2021/12/21 07:03:33;;;;;;;20.63;10.43;;;;;;;-0.98;65.67;99191.41;4971478;29;20428;-86
2021/12/21 07:06:01;;;;;;;8.60;5.30;;;;;;;0.44;64.99;99429.75;4978108;28;20211;-88
2021/12/21 07:08:29;;;;;;;6.07;3.37;;;;;;;0.28;64.88;99378.56;4981670;28;20419;-87
2021/12/21 07:19:07;;;;;;;15.87;8.27;;;;;;;2.54;63.70;99675.56;4981122;28;20438;-86
2021/12/21 07:21:32;;;;;;;16.30;7.47;;;;;;;2.94;63.04;99685.41;4977468;28;20499;-86
2021/12/21 07:23:58;;;;;;;10.37;5.70;;;;;;;1.99;62.76;99539.59;4978060;28;20191;-87
2021/12/21 07:26:26;;;;;;;7.20;4.50;;;;;;;1.78;61.66;99468.91;4978204;28;20342;-87
2021/12/21 07:28:53;;;;;;;13.17;5.70;;;;;;;4.32;60.89;99835.31;4976694;28;20229;-88
2021/12/21 07:31:18;;;;;;;15.37;8.23;;;;;;;4.01;60.32;99767.88;4977586;28;20447;-86
2021/12/21 07:33:44;;;;;;;8.77;5.17;;;;;;;4.12;60.92;99817.16;4975838;28;20439;-86
2021/12/21 07:36:09;;;;;;;10.37;5.87;;;;;;;2.11;60.29;99460.69;4975949;28;20680;-87
2021/12/21 07:38:35;;;;;;;14.60;7.07;;;;;;;1.38;60.68;99282.84;4965647;28;20176;-88
2021/12/21 07:41:01;;;;;;;13.20;9.10;;;;;;;4.28;60.14;99839.25;4958822;29;20260;-88
2021/12/21 07:43:26;;;;;;;13.13;5.33;;;;;;;3.56;60.51;99722.75;4959980;29;20204;-89
2021/12/21 07:45:52;;;;;;;8.43;4.53;;;;;;;0.78;59.90;99261.50;4961561;28;20215;-88
2021/12/21 07:48:18;;;;;;;7.00;3.50;;;;;;;0.16;59.86;99149.47;4960258;29;20235;-88
2021/12/21 07:50:46;;;;;;;14.83;6.07;;;;;;;1.57;60.59;99412.31;4943581;29;20200;-90
2021/12/21 07:53:16;;;;;;;13.90;7.07;;;;;;;0.66;60.79;99269.63;4959086;29;20503;-89
2021/12/21 07:55:42;;;;;;;11.97;6.70;;;;;;;4.01;60.45;99880.59;4959274;28;20446;-89
2021/12/21 07:58:07;;;;;;;9.10;5.67;;;;;;;1.97;61.30;99542.00;4959825;28;20503;-89
2021/12/21 08:00:33;;;;;;;8.50;4.00;;;;;;;1.71;60.92;99462.56;4958990;29;20701;-90
2021/12/21 08:02:59;;;;;;;6.97;4.10;;;;;;;3.28;59.72;99745.53;4957261;29;20632;-89
2021/12/21 08:05:24;;;;;;;5.13;3.13;;;;;;;2.66;59.86;99633.19;4956874;28;20203;-88
2021/12/21 08:07:56;;;;;;;8.00;4.20;;;;;;;1.33;60.21;99401.31;4962935;28;20184;-88
2021/12/21 08:13:11;;;;;;;8.77;4.80;;;;;;;3.83;60.30;99839.13;4949512;29;20440;-86
2021/12/21 08:15:36;;;;;;;5.70;3.60;;;;;;;1.86;60.40;99507.81;4939738;29;20436;-84
2021/12/21 08:18:02;;;;;;;5.73;3.67;;;;;;;-0.03;60.22;99156.22;4930967;29;20954;-87
2021/12/21 08:20:27;;;;;;;3.77;2.23;;;;;;;2.96;59.70;99668.94;4931618;29;20177;-87
2021/12/21 08:22:54;;;;;;;9.00;3.83;;;;;;;4.39;59.41;99902.69;4941717;29;20181;-87
2021/12/21 08:25:24;;;;;;;8.17;4.53;;;;;;;0.49;58.34;99198.56;4926423;29;20212;-88
2021/12/21 08:27:51;;;;;;;4.57;2.73;;;;;;;4.80;58.16;99899.13;4924709;29;20417;-87
2021/12/21 08:30:16;;;;;;;12.20;3.37;;;;;;;4.53;57.53;99864.50;4906465;29;20473;-87
2021/12/21 08:32:42;;;;;;;3.83;2.73;;;;;;;2.31;56.51;99453.94;4920520;29;20428;-88
2021/12/21 08:35:08;;;;;;;4.57;2.63;;;;;;;3.51;57.10;99693.13;4919319;29;20192;-87
2021/12/21 08:37:35;;;;;;;8.97;4.33;;;;;;;4.83;56.25;99894.34;4919767;29;20203;-86
2021/12/21 08:40:02;;;;;;;12.23;5.50;;;;;;;4.74;56.41;99876.97;4935732;29;20485;-87
2021/12/21 08:42:28;;;;;;;12.00;5.50;;;;;;;4.16;55.45;99740.59;4904404;29;20448;-87
2021/12/21 08:44:56;;;;;;;17.37;6.30;;;;;;;4.81;55.00;99902.53;4932331;29;20455;-86
2021/12/21 08:47:22;;;;;;;22.20;9.73;;;;;;;4.28;56.03;99744.03;4904712;29;20177;-87
2021/12/21 08:49:49;;;;;;;16.60;7.07;;;;;;;2.78;54.92;99457.53;4946057;28;20431;-87
2021/12/21 08:52:16;;;;;;;13.33;6.87;;;;;;;5.28;54.65;99900.19;4955625;29;20428;-87
2021/12/21 08:54:42;;;;;;;13.43;7.53;;;;;;;3.04;53.58;99471.09;4955136;28;20503;-87
2021/12/21 08:57:09;;;;;;;7.70;4.10;;;;;;;5.80;53.62;99904.75;4966525;28;20514;-87
2021/12/21 08:59:35;;;;;;;11.50;5.40;;;;;;;5.11;54.51;99826.97;4969921;29;20447;-88
2021/12/21 09:02:02;;;;;;;10.33;5.57;;;;;;;4.87;53.09;99793.47;4966981;28;20419;-87
2021/12/21 09:04:28;;;;;;;6.13;4.00;;;;;;;3.62;54.22;99603.84;4959329;29;20207;-87
2021/12/21 09:06:53;;;;;;;11.57;5.60;;;;;;;4.72;54.91;99747.25;4959166;28;20921;-87
2021/12/21 09:09:19;;;;;;;17.43;9.00;;;;;;;4.95;55.44;99736.31;4957344;29;20234;-88
2021/12/21 09:11:45;;;;;;;11.93;5.87;;;;;;;5.79;54.90;99897.13;4957472;29;20184;-88
2021/12/21 09:14:12;;;;;;;19.53;9.23;;;;;;;6.22;54.99;99904.38;4958047;29;20196;-89
2021/12/21 09:16:38;;;;;;;27.03;12.43;;;;;;;6.50;53.96;99855.19;4955650;28;20477;-87
2021/12/21 09:19:05;;;;;;;40.97;16.30;;;;;;;5.41;54.31;99731.25;4955197;28;20470;-88
2021/12/21 09:21:31;;;;;;;18.83;8.77;;;;;;;6.80;53.42;99900.75;4956073;29;20491;-88
2021/12/21 09:23:56;;;;;;;7.60;4.77;;;;;;;3.87;53.40;99518.09;4958459;29;20968;-87
2021/12/21 09:26:22;;;;;;;19.17;9.50;;;;;;;6.15;53.99;99889.66;4955846;28;20556;-88
2021/12/21 09:28:47;;;;;;;20.23;8.70;;;;;;;2.37;53.94;99226.25;4956991;28;20626;-88
2021/12/21 09:31:13;;;;;;;7.47;5.10;;;;;;;3.00;54.20;99284.97;4956597;29;20228;-87
2021/12/21 09:33:38;;;;;;;10.63;6.20;;;;;;;4.16;54.28;99495.09;4956749;29;20712;-87
2021/12/21 09:36:04;;;;;;;4.87;3.33;;;;;;;5.40;54.77;99804.81;4960234;28;20173;-87
2021/12/21 09:38:30;;;;;;;4.90;3.13;;;;;;;4.46;55.10;99602.47;4972537;28;20200;-90
2021/12/21 09:40:56;;;;;;;10.97;5.70;;;;;;;2.66;54.48;99253.34;4967131;29;20416;-90
2021/12/21 09:43:22;;;;;;;10.60;4.87;;;;;;;3.28;52.53;99272.75;4967896;29;20188;-90
2021/12/21 09:45:48;;;;;;;14.07;6.43;;;;;;;5.36;53.35;99622.09;4966680;29;20204;-91
2021/12/21 09:48:13;;;;;;;20.73;9.43;;;;;;;4.90;53.50;99598.03;4965422;28;20195;-91
2021/12/21 09:50:39;;;;;;;30.40;12.50;;;;;;;3.52;54.09;99329.50;4966516;29;20183;-90
2021/12/21 09:53:04;;;;;;;10.90;5.87;;;;;;;3.25;53.24;99277.53;4962691;29;20184;-91
2021/12/21 09:55:30;;;;;;;18.33;12.03;;;;;;;3.82;52.91;99403.38;4966992;29;20165;-89
2021/12/21 09:57:56;;;;;;;6.60;4.43;;;;;;;5.61;51.98;99625.47;4990162;28;20191;-89
2021/12/21 10:00:27;;;;;;;7.73;4.00;;;;;;;5.60;51.25;99663.94;4964959;28;20255;-90
2021/12/21 10:03:01;;;;;;;8.47;4.37;;;;;;;3.96;51.33;99360.97;4977472;28;20439;-89
2021/12/21 10:05:28;;;;;;;6.20;3.37;;;;;;;6.79;51.02;99869.69;4976622;28;21013;-89
2021/12/21 10:08:08;;;;;;;16.83;6.90;;;;;;;6.61;51.56;99888.59;4959133;28;20512;-88
2021/12/21 10:10:37;;;;;;;10.13;4.67;;;;;;;4.42;52.06;99545.38;4963097;29;20754;-90
2021/12/21 10:13:13;;;;;;;4.83;3.63;;;;;;;4.65;52.24;99612.16;4963714;29;20988;-89
2021/12/21 10:15:45;;;;;;;16.93;8.47;;;;;;;3.62;51.03;99329.38;4963093;28;20949;-90
2021/12/21 10:18:12;;;;;;;6.70;3.93;;;;;;;3.80;50.74;99424.91;4969219;28;20415;-89
2021/12/21 10:20:43;;;;;;;10.90;6.63;;;;;;;7.02;50.01;99873.69;4964954;28;20421;-89
2021/12/21 10:23:12;;;;;;;11.47;5.73;;;;;;;5.08;48.28;99595.94;4960903;29;20420;-87
2021/12/21 10:25:47;;;;;;;18.90;8.03;;;;;;;5.60;50.45;99631.28;4965829;28;20565;-88
2021/12/21 10:28:29;;;;;;;23.50;11.07;;;;;;;4.38;50.57;99520.88;4974355;28;20433;-91
2021/12/21 10:30:57;;;;;;;21.67;9.27;;;;;;;2.93;49.17;99188.69;4983125;28;20478;-87
2021/12/21 10:33:25;;;;;;;23.33;11.07;;;;;;;5.58;48.97;99586.72;4981247;28;20498;-89
2021/12/21 10:35:53;;;;;;;10.93;5.77;;;;;;;3.31;49.40;99366.41;4955695;28;20826;-87
2021/12/21 10:38:51;;;;;;;32.50;14.27;;;;;;;6.17;50.52;99716.31;4972827;28;20447;-88
2021/12/21 10:41:42;;;;;;;;;;;;;;;;;;;;;
2021/12/21 10:44:18;;;;;;;14.90;6.80;;;;;;;6.89;49.88;99871.16;4927037;29;20512;-88
2021/12/21 10:46:47;;;;;;;17.53;8.83;;;;;;;6.30;49.71;99867.19;4920344;29;20529;-86
2021/12/21 10:49:23;;;;;;;23.23;11.53;;;;;;;2.57;50.78;99252.66;4912975;29;20450;-87
2021/12/21 10:51:54;;;;;;;22.73;10.23;;;;;;;6.26;51.45;99860.22;4890982;29;20453;-89
2021/12/21 10:54:41;;;;;;;31.43;13.33;;;;;;;2.90;50.66;99207.59;4891849;29;20419;-89
2021/12/21 10:57:15;;;;;;;24.90;11.27;;;;;;;3.37;49.16;99218.38;4904486;29;20449;-87
2021/12/21 10:59:45;;;;;;;10.57;5.97;;;;;;;3.44;47.92;99310.59;4891813;29;20423;-89
2021/12/21 11:02:34;;;;;;;16.70;7.43;;;;;;;2.94;48.67;99170.41;4888386;29;20419;-86
2021/12/21 11:05:10;;;;;;;30.27;13.27;;;;;;;7.32;47.01;99825.31;4869442;29;20982;-85
2021/12/21 11:07:53;;;;;;;35.23;15.97;;;;;;;6.33;47.22;99693.91;4872745;29;20439;-86
2021/12/21 11:10:29;;;;;;;15.47;7.20;;;;;;;4.55;47.63;99419.28;4887202;29;20278;-87
2021/12/21 11:13:00;;;;;;;9.57;4.67;;;;;;;4.80;46.73;99537.13;4884369;29;20445;-86
2021/12/21 11:15:35;;;;;;;11.07;4.83;;;;;;;4.45;47.23;99484.59;4899937;29;20844;-88
2021/12/21 11:18:05;;;;;;;8.00;3.73;;;;;;;4.01;46.71;99419.75;4915476;29;20420;-86
2021/12/21 11:20:30;;;;;;;12.63;5.90;;;;;;;4.63;47.39;99589.50;4923128;29;20431;-83
2021/12/21 11:22:56;;;;;;;8.90;4.67;;;;;;;5.34;47.83;99716.50;4939655;29;20477;-85
2021/12/21 11:25:25;;;;;;;12.90;5.67;;;;;;;3.28;48.28;99347.81;4893744;29;20219;-85
2021/12/21 11:27:51;;;;;;;9.00;3.97;;;;;;;5.73;47.41;99679.06;4870488;29;20227;-87
2021/12/21 11:30:21;;;;;;;7.00;3.70;;;;;;;5.40;47.42;99683.44;4885118;29;20479;-86
2021/12/21 11:32:52;;;;;;;9.67;5.57;;;;;;;6.50;46.86;99860.22;4880909;29;20581;-84
2021/12/21 11:37:58;;;;;;;4.93;2.73;;;;;;;4.23;47.90;99596.63;4926373;29;20426;-87
2021/12/21 11:40:35;;;;;;;6.80;4.87;;;;;;;4.40;48.92;99628.75;4920975;29;20875;-87
2021/12/21 11:43:10;;;;;;;5.70;3.50;;;;;;;6.10;47.85;99860.81;4937680;29;20467;-85
2021/12/21 11:45:50;;;;;;;4.50;2.87;;;;;;;4.55;47.26;99633.22;4921385;29;21111;-87
2021/12/21 11:48:30;;;;;;;4.70;2.63;;;;;;;5.52;48.06;99847.47;4904679;29;20472;-84
2021/12/21 11:51:08;;;;;;;14.40;6.37;;;;;;;3.64;49.38;99505.56;4916999;29;20425;-84
2021/12/21 11:53:34;;;;;;;11.33;5.53;;;;;;;5.74;49.83;99835.66;4916979;29;20414;-85
2021/12/21 11:56:00;;;;;;;12.93;6.10;;;;;;;5.24;49.91;99791.94;4901155;29;20489;-83
2021/12/21 11:58:35;;;;;;;12.47;5.30;;;;;;;5.07;49.54;99737.19;4916446;29;20930;-83
2021/12/21 12:01:16;;;;;;;25.07;10.07;;;;;;;4.15;49.89;99559.34;4916812;29;20434;-83
2021/12/21 12:03:58;;;;;;;19.93;10.67;;;;;;;4.39;51.04;99599.44;4948678;29;20487;-84
2021/12/21 12:06:25;;;;;;;15.17;8.23;;;;;;;5.30;50.66;99765.63;4955408;28;20413;-83
2021/12/21 12:08:57;;;;;;;37.73;17.00;;;;;;;4.88;52.54;99732.53;4956837;28;20903;-82
2021/12/21 12:11:35;;;;;;;40.70;17.97;;;;;;;5.16;53.31;99819.03;4956514;28;20902;-83
2021/12/21 12:14:12;;;;;;;35.50;17.73;;;;;;;3.47;53.18;99528.50;4966789;28;20419;-85
2021/12/21 12:16:45;;;;;;;29.33;15.33;;;;;;;5.45;53.07;99863.75;4942945;28;20487;-85
2021/12/21 12:19:14;;;;;;;56.90;25.93;;;;;;;3.53;53.55;99541.47;4956701;28;20862;-85
2021/12/21 12:21:56;;;;;;;51.40;24.57;;;;;;;3.64;53.89;99549.75;4974269;28;20959;-85
2021/12/21 12:24:25;;;;;;;37.87;19.83;;;;;;;3.86;54.59;99596.47;4958665;28;20479;-86
2021/12/21 12:27:02;;;;;;;58.57;28.60;;;;;;;3.52;54.39;99484.66;4975492;28;20494;-87
2021/12/21 12:29:28;;;;;;;44.50;20.20;;;;;;;3.72;54.50;99561.19;4974623;28;20478;-86
2021/12/21 12:32:11;;;;;;;32.03;14.43;;;;;;;5.58;54.74;99885.53;4974812;28;20987;-85
2021/12/21 12:34:39;;;;;;;51.00;20.90;;;;;;;4.92;54.81;99769.56;4961265;28;20955;-84
2021/12/21 12:37:21;;;;;;;51.13;22.27;;;;;;;5.38;54.95;99830.56;4956130;28;20435;-87
2021/12/21 12:39:52;;;;;;;38.73;18.20;;;;;;;4.30;54.15;99621.34;4925493;28;20524;-85
2021/12/21 12:42:22;;;;;;;41.87;19.40;;;;;;;5.73;53.84;99891.66;4962014;28;20534;-85
2021/12/21 12:44:55;;;;;;;41.27;19.37;;;;;;;3.80;53.74;99568.47;4959666;28;20973;-86
2021/12/21 12:47:26;;;;;;;42.13;17.37;;;;;;;5.58;54.66;99895.59;4960179;28;20412;-85
2021/12/21 12:49:56;;;;;;;31.37;16.03;;;;;;;3.16;56.46;99519.50;4975714;28;20403;-85
2021/12/21 12:52:30;;;;;;;20.43;9.83;;;;;;;5.31;56.60;99882.84;4975810;28;20486;-85